Time;durP1;ratioP1;P1;durP2;ratioP2;P2;SDS_P1;SDS_P2;PMS_P1;PMS_P2;Temp;Humidity;BMP_temperature;BMP_pressure;BME280_temperature;BME280_humidity;BME280_pressure;Samples;Min_cycle;Max_cycle;Signal;HPM_P1;HPM_P2
2021/08/11 00:01:36;;;;;;;5.93;5.33;;;14.80;99.90;;;;;;5053773;28;20676;-69
2021/08/11 00:04:01;;;;;;;7.30;4.57;;;14.80;99.90;;;;;;5053334;28;20619;-69
2021/08/11 00:06:27;;;;;;;5.20;4.70;;;14.80;99.90;;;;;;5053825;28;20651;-69
2021/08/11 00:08:52;;;;;;;5.43;4.93;;;14.80;99.90;;;;;;5053461;28;20167;-69
2021/08/11 00:11:18;;;;;;;6.20;4.83;;;14.70;99.90;;;;;;5053374;28;20202;-69
2021/08/11 00:13:43;;;;;;;5.90;4.63;;;14.70;99.90;;;;;;5053259;28;20167;-69
2021/08/11 00:16:09;;;;;;;4.20;3.60;;;14.70;99.90;;;;;;5053664;28;20167;-69
2021/08/11 00:18:35;;;;;;;5.13;4.60;;;14.70;99.90;;;;;;5053217;28;20229;-69
2021/08/11 00:21:01;;;;;;;5.00;4.50;;;14.70;99.90;;;;;;5053321;28;20444;-69
2021/08/11 00:23:26;;;;;;;4.40;4.00;;;14.80;99.90;;;;;;5053025;28;20402;-69
2021/08/11 00:25:54;;;;;;;6.77;4.30;;;14.80;99.90;;;;;;5053484;28;20218;-69
2021/08/11 00:28:24;;;;;;;4.33;3.60;;;14.80;99.90;;;;;;5053209;28;20168;-69
2021/08/11 00:30:52;;;;;;;4.10;3.30;;;14.80;99.90;;;;;;5053163;28;20437;-70
2021/08/11 00:33:17;;;;;;;3.80;3.13;;;14.80;99.90;;;;;;5053268;28;20460;-69
2021/08/11 00:35:43;;;;;;;2.80;2.60;;;14.90;99.90;;;;;;5052841;28;20904;-69
2021/08/11 00:38:09;;;;;;;3.37;3.07;;;14.90;99.90;;;;;;5053080;28;20168;-69
2021/08/11 00:40:34;;;;;;;8.90;3.73;;;15.00;99.90;;;;;;5052841;28;20175;-69
2021/08/11 00:43:05;;;;;;;3.63;3.33;;;14.90;99.90;;;;;;5052935;28;20842;-69
2021/08/11 00:45:31;;;;;;;3.90;3.60;;;14.90;99.90;;;;;;5052765;28;20677;-69
2021/08/11 00:47:57;;;;;;;4.93;4.53;;;14.90;99.90;;;;;;5052907;28;20395;-69
2021/08/11 00:50:22;;;;;;;3.30;3.00;;;14.80;99.90;;;;;;5052787;28;20764;-68
2021/08/11 00:52:48;;;;;;;3.93;3.40;;;14.80;99.90;;;;;;5052647;28;20177;-69
2021/08/11 00:55:15;;;;;;;5.37;4.37;;;14.70;99.90;;;;;;5052795;28;20224;-69
2021/08/11 00:57:42;;;;;;;5.00;4.23;;;14.80;99.90;;;;;;5052686;28;20535;-70
2021/08/11 01:00:08;;;;;;;5.50;5.10;;;14.70;99.90;;;;;;5052521;28;20410;-69
2021/08/11 01:02:35;;;;;;;7.10;5.80;;;14.80;99.90;;;;;;5052310;28;20429;-69
2021/08/11 01:05:01;;;;;;;5.53;4.53;;;14.80;99.90;;;;;;5052637;28;20457;-69
2021/08/11 01:07:28;;;;;;;6.67;4.70;;;14.80;99.90;;;;;;5052686;28;20402;-69
2021/08/11 01:09:54;;;;;;;7.27;5.27;;;14.70;99.90;;;;;;5052511;28;20415;-69
2021/08/11 01:12:23;;;;;;;6.00;5.07;;;14.60;99.90;;;;;;5052272;28;20432;-69
2021/08/11 01:14:51;;;;;;;6.80;5.50;;;14.60;99.90;;;;;;5052402;28;20788;-69
2021/08/11 01:17:18;;;;;;;6.77;6.07;;;14.70;99.90;;;;;;5052266;28;20452;-69
2021/08/11 01:19:43;;;;;;;5.97;5.30;;;14.70;99.90;;;;;;5052339;28;20778;-68
2021/08/11 01:22:38;;;;;;;6.10;5.50;;;14.60;99.90;;;;;;5052045;28;20436;-69
2021/08/11 01:25:31;;;;;;;6.67;5.87;;;14.60;99.90;;;;;;5050021;28;20202;-69
2021/08/11 01:28:42;;;;;;;9.30;6.93;;;14.60;99.90;;;;;;5052214;28;20402;-68
2021/08/11 01:31:08;;;;;;;7.10;6.03;;;14.70;99.90;;;;;;5046426;28;20475;-69
2021/08/11 01:33:46;;;;;;;9.23;8.10;;;14.60;99.90;;;;;;5052487;28;20543;-69
2021/08/11 01:36:48;;;;;;;9.93;7.40;;;14.50;99.90;;;;;;5053916;28;20317;-69
2021/08/11 01:39:26;;;;;;;11.07;8.20;;;14.60;99.90;;;;;;5052217;28;20497;-69
2021/08/11 01:41:58;;;;;;;10.33;6.57;;;14.50;99.90;;;;;;5049630;28;20432;-70
2021/08/11 01:44:29;;;;;;;7.73;6.93;;;14.50;99.90;;;;;;5051993;28;20402;-69
2021/08/11 01:46:55;;;;;;;8.30;7.37;;;14.50;99.90;;;;;;5051692;28;20651;-69
2021/08/11 01:49:22;;;;;;;7.37;6.60;;;14.60;99.90;;;;;;5051897;28;20412;-69
2021/08/11 01:51:48;;;;;;;7.50;6.80;;;14.50;99.90;;;;;;5052179;28;20420;-70
2021/08/11 01:54:15;;;;;;;8.33;7.23;;;14.50;99.90;;;;;;5051770;28;20914;-68
2021/08/11 01:56:41;;;;;;;8.63;7.13;;;14.60;99.90;;;;;;5051763;28;20447;-68
2021/08/11 01:59:08;;;;;;;8.03;6.60;;;14.40;99.90;;;;;;5052047;28;20401;-69
2021/08/11 02:01:39;;;;;;;8.43;6.83;;;14.40;99.90;;;;;;5051478;28;20460;-70
2021/08/11 02:04:06;;;;;;;9.07;7.03;;;14.40;99.90;;;;;;5051224;28;20512;-68
2021/08/11 02:06:37;;;;;;;9.20;7.43;;;14.40;99.90;;;;;;5051629;28;20485;-69
2021/08/11 02:09:03;;;;;;;8.43;6.80;;;14.30;99.90;;;;;;5051501;28;20460;-70
2021/08/11 02:11:29;;;;;;;9.13;7.30;;;14.40;99.90;;;;;;5051220;28;20441;-70
2021/08/11 02:13:56;;;;;;;9.60;7.40;;;14.40;99.90;;;;;;5051206;28;20163;-70
2021/08/11 02:16:21;;;;;;;8.00;6.93;;;14.30;99.90;;;;;;5051423;28;20409;-69
2021/08/11 02:18:47;;;;;;;8.13;7.33;;;14.40;99.90;;;;;;5051246;28;20420;-70
2021/08/11 02:21:12;;;;;;;7.53;6.47;;;14.30;99.90;;;;;;5052008;28;20545;-70
2021/08/11 02:23:40;;;;;;;9.47;6.43;;;14.30;99.90;;;;;;5051434;28;20182;-70
2021/08/11 02:26:48;;;;;;;6.20;5.40;;;14.30;99.90;;;;;;5050443;28;20546;-72
2021/08/11 02:29:34;;;;;;;8.60;7.80;;;14.20;99.90;;;;;;5051728;28;20883;-70
2021/08/11 02:32:18;;;;;;;7.40;6.70;;;14.30;99.90;;;;;;5051442;28;20413;-70
2021/08/11 02:35:10;;;;;;;8.37;6.30;;;14.30;99.90;;;;;;5051172;28;20410;-70
2021/08/11 02:37:46;;;;;;;6.90;6.20;;;14.20;99.90;;;;;;5051396;28;20397;-70
2021/08/11 02:40:38;;;;;;;7.97;7.17;;;14.20;99.90;;;;;;5051384;28;20500;-70
2021/08/11 02:43:24;;;;;;;8.27;7.50;;;14.10;99.90;;;;;;5051248;28;20406;-70
2021/08/11 02:45:55;;;;;;;8.90;7.67;;;14.20;99.90;;;;;;5049907;28;20465;-70
2021/08/11 02:48:21;;;;;;;8.20;7.40;;;14.20;99.90;;;;;;5051301;28;20410;-69
2021/08/11 02:50:49;;;;;;;8.40;7.60;;;14.20;99.90;;;;;;5051331;28;20461;-70
2021/08/11 02:53:18;;;;;;;8.30;7.47;;;14.20;99.90;;;;;;5051306;28;20414;-70
2021/08/11 02:55:44;;;;;;;10.70;7.47;;;14.10;99.90;;;;;;5051392;28;20413;-70
2021/08/11 02:58:10;;;;;;;9.33;8.43;;;14.20;99.90;;;;;;5052641;28;20414;-70
2021/08/11 03:00:36;;;;;;;11.20;8.10;;;14.10;99.90;;;;;;5055397;28;20424;-70
2021/08/11 03:03:02;;;;;;;8.33;7.23;;;14.20;99.90;;;;;;5053464;28;20429;-70
2021/08/11 03:05:28;;;;;;;9.70;8.70;;;14.10;99.90;;;;;;5055043;28;20282;-70
2021/08/11 03:07:54;;;;;;;11.13;8.17;;;14.20;99.90;;;;;;5054859;28;20508;-70
2021/08/11 03:10:21;;;;;;;10.67;9.67;;;14.10;99.90;;;;;;5054865;28;20167;-70
2021/08/11 03:12:47;;;;;;;8.20;7.33;;;14.00;99.90;;;;;;5054435;28;20413;-69
2021/08/11 03:15:14;;;;;;;8.27;7.40;;;14.10;99.90;;;;;;5054932;28;20412;-70
2021/08/11 03:17:39;;;;;;;11.80;10.17;;;14.00;99.90;;;;;;5054618;28;20638;-70
2021/08/11 03:20:07;;;;;;;11.13;9.93;;;14.10;99.90;;;;;;5054976;28;20478;-69
2021/08/11 03:22:32;;;;;;;15.73;8.87;;;14.10;99.90;;;;;;5054171;28;20468;-70
2021/08/11 03:24:58;;;;;;;11.90;8.50;;;14.00;99.90;;;;;;5054421;28;20496;-70
2021/08/11 03:27:23;;;;;;;11.00;9.80;;;14.10;99.90;;;;;;5054489;28;20182;-69
2021/08/11 03:29:49;;;;;;;11.23;8.73;;;14.10;99.90;;;;;;5054715;28;20163;-70
2021/08/11 03:32:15;;;;;;;11.07;9.97;;;14.20;99.90;;;;;;5054513;28;20193;-70
2021/08/11 03:34:40;;;;;;;12.67;9.60;;;14.00;99.90;;;;;;5054366;28;20167;-70
2021/08/11 03:37:06;;;;;;;13.37;9.70;;;14.10;99.90;;;;;;5054634;28;20170;-70
2021/08/11 03:39:32;;;;;;;12.97;10.17;;;14.10;99.90;;;;;;5054480;28;20549;-69
2021/08/11 03:41:58;;;;;;;13.43;10.07;;;14.10;99.90;;;;;;5053561;28;20198;-70
2021/08/11 03:44:23;;;;;;;11.37;9.63;;;14.00;99.90;;;;;;5054281;28;20768;-70
2021/08/11 03:46:49;;;;;;;10.60;9.50;;;14.10;99.90;;;;;;5054903;28;20611;-70
2021/08/11 03:49:14;;;;;;;13.00;9.23;;;14.10;99.90;;;;;;5054758;28;20213;-70
2021/08/11 03:52:03;;;;;;;9.83;8.90;;;14.00;99.90;;;;;;5054527;28;20194;-70
2021/08/11 03:54:28;;;;;;;9.93;8.93;;;14.00;99.90;;;;;;5054154;28;20178;-70
2021/08/11 03:56:54;;;;;;;13.30;10.13;;;14.00;99.90;;;;;;5054101;28;20405;-70
2021/08/11 03:59:19;;;;;;;11.43;10.20;;;14.00;99.90;;;;;;5053278;28;20540;-70
2021/08/11 04:01:45;;;;;;;12.40;11.20;;;14.10;99.90;;;;;;5053961;28;20272;-70
2021/08/11 04:04:10;;;;;;;10.37;9.03;;;14.10;99.90;;;;;;5053671;28;20198;-70
2021/08/11 04:06:36;;;;;;;12.13;10.83;;;14.10;99.90;;;;;;5053996;28;20195;-71
2021/08/11 04:09:01;;;;;;;12.03;10.07;;;14.00;99.90;;;;;;5053860;28;20201;-70
2021/08/11 04:11:26;;;;;;;13.13;10.93;;;14.00;99.90;;;;;;5053025;28;20202;-70
2021/08/11 04:13:52;;;;;;;11.77;10.27;;;14.00;99.90;;;;;;5053685;28;20174;-70
2021/08/11 04:16:17;;;;;;;12.27;10.53;;;14.10;99.90;;;;;;5053753;28;20171;-70
2021/08/11 04:18:43;;;;;;;12.43;10.53;;;14.00;99.90;;;;;;5053717;28;20179;-70
2021/08/11 04:21:08;;;;;;;11.70;10.33;;;14.10;99.90;;;;;;5053573;28;20194;-70
2021/08/11 04:23:34;;;;;;;15.73;11.27;;;14.10;99.90;;;;;;5053603;28;20709;-71
2021/08/11 04:25:59;;;;;;;13.37;11.73;;;14.10;99.90;;;;;;5053515;28;20233;-69
2021/08/11 04:28:28;;;;;;;13.77;11.13;;;14.20;99.90;;;;;;5053520;28;20713;-68
2021/08/11 04:30:53;;;;;;;12.53;11.23;;;14.20;99.90;;;;;;5053290;28;20237;-69
2021/08/11 04:33:19;;;;;;;11.60;10.30;;;14.10;99.90;;;;;;5053214;28;20402;-70
2021/08/11 04:35:45;;;;;;;13.37;12.03;;;14.20;99.90;;;;;;5053331;28;20166;-69
2021/08/11 04:38:10;;;;;;;14.53;11.87;;;14.20;99.90;;;;;;5053743;28;20182;-69
2021/08/11 04:40:37;;;;;;;13.70;10.80;;;14.20;99.90;;;;;;5053368;28;20597;-70
2021/08/11 04:43:04;;;;;;;13.10;11.37;;;14.30;99.90;;;;;;5053121;28;20768;-70
2021/08/11 04:45:30;;;;;;;13.10;10.80;;;14.30;99.90;;;;;;5053463;28;20532;-70
2021/08/11 04:47:55;;;;;;;13.63;11.93;;;14.30;99.90;;;;;;5053039;28;20920;-69
2021/08/11 04:50:21;;;;;;;12.97;11.03;;;14.30;99.90;;;;;;5053644;28;20696;-68
2021/08/11 04:52:46;;;;;;;16.00;11.17;;;14.40;99.90;;;;;;5052678;28;20249;-70
2021/08/11 04:55:12;;;;;;;13.23;11.20;;;14.40;99.90;;;;;;5053005;28;20171;-70
2021/08/11 04:57:38;;;;;;;11.77;10.50;;;14.40;99.90;;;;;;5052784;28;20163;-70
2021/08/11 05:00:04;;;;;;;13.43;11.60;;;14.40;99.90;;;;;;5053235;28;20792;-70
2021/08/11 05:02:30;;;;;;;14.43;12.07;;;14.50;99.90;;;;;;5052418;28;20195;-71
2021/08/11 05:04:55;;;;;;;12.53;11.30;;;14.60;99.90;;;;;;5052570;28;20468;-70
2021/08/11 05:07:21;;;;;;;21.00;16.30;;;14.50;99.90;;;;;;5052713;28;20167;-71
2021/08/11 05:09:46;;;;;;;12.70;11.33;;;14.60;99.90;;;;;;5052988;28;20171;-70
2021/08/11 05:12:12;;;;;;;17.43;11.63;;;14.60;99.90;;;;;;5052640;28;20252;-71
2021/08/11 05:14:38;;;;;;;16.90;11.60;;;14.70;99.90;;;;;;5052677;28;20159;-70
2021/08/11 05:17:03;;;;;;;14.60;11.23;;;14.80;99.90;;;;;;5052566;28;20171;-70
2021/08/11 05:19:29;;;;;;;12.87;11.57;;;15.00;99.90;;;;;;5052589;28;20768;-69
2021/08/11 05:21:54;;;;;;;13.10;11.30;;;15.10;99.90;;;;;;5051327;28;20219;-70
2021/08/11 05:24:19;;;;;;;14.70;11.20;;;15.00;99.90;;;;;;5052269;28;20198;-70
2021/08/11 05:26:45;;;;;;;11.23;10.03;;;15.20;99.90;;;;;;5052312;28;20194;-70
2021/08/11 05:29:20;;;;;;;11.37;9.47;;;15.50;99.90;;;;;;5052277;28;20666;-69
2021/08/11 05:31:46;;;;;;;11.57;8.80;;;15.70;99.90;;;;;;5052237;28;20194;-69
2021/08/11 05:34:12;;;;;;;10.67;9.20;;;15.80;99.90;;;;;;5051900;28;20416;-70
2021/08/11 05:36:37;;;;;;;11.07;8.30;;;16.00;99.90;;;;;;5052255;28;20410;-70
2021/08/11 05:39:03;;;;;;;9.03;8.10;;;16.30;99.90;;;;;;5052215;28;20181;-70
2021/08/11 05:41:29;;;;;;;10.57;8.97;;;16.60;99.90;;;;;;5052090;28;20186;-70
2021/08/11 05:43:55;;;;;;;8.20;7.40;;;16.80;99.90;;;;;;5051796;28;20900;-70
2021/08/11 05:46:20;;;;;;;11.53;7.70;;;17.10;99.90;;;;;;5052147;28;20200;-72
2021/08/11 05:48:46;;;;;;;11.20;10.03;;;17.20;99.90;;;;;;5051850;28;20171;-69
2021/08/11 05:51:13;;;;;;;8.80;7.90;;;17.10;99.90;;;;;;5051971;28;20657;-69
2021/08/11 05:53:39;;;;;;;8.13;7.40;;;17.30;99.90;;;;;;5051910;28;20179;-69
2021/08/11 05:56:04;;;;;;;11.63;8.67;;;17.20;99.90;;;;;;5052180;28;20410;-70
2021/08/11 05:58:30;;;;;;;9.13;7.53;;;17.60;99.90;;;;;;5051900;28;20411;-68
2021/08/11 06:00:56;;;;;;;9.37;8.47;;;18.20;99.90;;;;;;5051784;28;20189;-70
2021/08/11 06:03:21;;;;;;;11.37;8.20;;;18.90;99.90;;;;;;5051832;28;20304;-70
2021/08/11 06:05:46;;;;;;;8.23;7.47;;;18.70;99.90;;;;;;5051540;28;20201;-69
2021/08/11 06:08:12;;;;;;;9.77;7.60;;;18.70;99.90;;;;;;5051908;28;20289;-69
2021/08/11 06:10:39;;;;;;;7.70;6.93;;;19.80;99.90;;;;;;5051693;28;20699;-70
2021/08/11 06:13:04;;;;;;;9.27;8.37;;;20.40;99.90;;;;;;5051581;28;20208;-70
2021/08/11 06:15:30;;;;;;;8.67;7.57;;;20.30;99.90;;;;;;5051893;28;20412;-69
2021/08/11 06:17:55;;;;;;;9.17;8.23;;;20.50;99.90;;;;;;5051835;28;20190;-69
2021/08/11 06:20:22;;;;;;;12.10;8.37;;;20.50;99.90;;;;;;5052262;28;20181;-69
2021/08/11 06:22:48;;;;;;;7.83;7.07;;;19.80;99.90;;;;;;5052278;28;20182;-69
2021/08/11 06:25:15;;;;;;;8.37;7.03;;;20.20;99.90;;;;;;5052323;28;20459;-69
2021/08/11 06:27:40;;;;;;;7.27;6.57;;;21.20;99.90;;;;;;5052177;28;20411;-69
2021/08/11 06:30:07;;;;;;;7.20;6.27;;;22.10;99.90;;;;;;5052462;28;20448;-71
2021/08/11 06:32:33;;;;;;;8.47;6.77;;;22.40;99.90;;;;;;5051027;28;20660;-71
2021/08/11 06:34:58;;;;;;;7.03;6.43;;;21.90;99.90;;;;;;5056074;28;20801;-70
2021/08/11 06:37:24;;;;;;;6.70;6.10;;;21.10;99.90;;;;;;5055671;28;20181;-71
2021/08/11 06:39:49;;;;;;;7.53;6.83;;;22.20;99.90;;;;;;5055695;28;20163;-71
2021/08/11 06:42:15;;;;;;;10.20;6.20;;;21.40;99.90;;;;;;5055420;28;20661;-70
2021/08/11 06:44:40;;;;;;;7.10;6.40;;;22.40;99.90;;;;;;5055475;28;20178;-72
2021/08/11 06:47:06;;;;;;;9.43;7.17;;;22.60;99.90;;;;;;5055158;28;20171;-71
2021/08/11 06:49:31;;;;;;;7.13;6.40;;;22.10;99.90;;;;;;5055417;28;20166;-69
2021/08/11 06:51:57;;;;;;;9.90;7.70;;;21.90;99.90;;;;;;5055241;28;20562;-70
2021/08/11 06:54:22;;;;;;;7.33;6.57;;;22.80;99.90;;;;;;5055042;28;20193;-69
2021/08/11 06:56:48;;;;;;;8.33;7.40;;;21.60;99.90;;;;;;5055386;28;20177;-68
2021/08/11 06:59:13;;;;;;;6.63;6.13;;;22.20;99.90;;;;;;5055084;28;20183;-69
2021/08/11 07:01:39;;;;;;;7.20;6.50;;;22.70;99.90;;;;;;5055072;28;20283;-70
2021/08/11 07:04:05;;;;;;;7.10;6.47;;;20.70;99.90;;;;;;5055029;28;20221;-69
2021/08/11 07:06:32;;;;;;;7.93;6.43;;;21.60;99.90;;;;;;5055230;28;20599;-70
2021/08/11 07:08:57;;;;;;;5.93;5.43;;;23.00;99.90;;;;;;5055242;28;20246;-70
2021/08/11 07:11:23;;;;;;;6.10;5.50;;;22.50;99.90;;;;;;5054999;28;20445;-70
2021/08/11 07:13:49;;;;;;;7.43;6.73;;;22.30;99.90;;;;;;5054561;28;20167;-70
2021/08/11 07:16:17;;;;;;;10.87;6.20;;;22.00;99.90;;;;;;5054976;28;20590;-70
2021/08/11 07:18:42;;;;;;;7.20;6.50;;;21.40;99.90;;;;;;5055072;28;20227;-70
2021/08/11 07:21:08;;;;;;;7.03;6.33;;;21.20;99.90;;;;;;5054755;28;20427;-69
2021/08/11 07:23:34;;;;;;;7.90;6.30;;;21.20;99.90;;;;;;5054158;28;20179;-70
2021/08/11 07:26:03;;;;;;;10.97;6.03;;;21.00;99.90;;;;;;5054705;28;20199;-70
2021/08/11 07:28:28;;;;;;;6.77;6.07;;;20.60;99.90;;;;;;5054719;28;20243;-68
2021/08/11 07:30:54;;;;;;;6.47;5.93;;;21.20;99.90;;;;;;5054366;28;20425;-70
2021/08/11 07:33:22;;;;;;;6.77;6.07;;;22.00;99.90;;;;;;5054538;28;20163;-70
2021/08/11 07:35:50;;;;;;;6.40;5.83;;;22.30;99.90;;;;;;5054636;28;20173;-70
2021/08/11 07:38:17;;;;;;;7.47;6.77;;;22.60;99.90;;;;;;5054604;28;20420;-70
2021/08/11 07:40:42;;;;;;;5.60;5.10;;;23.00;99.90;;;;;;5054511;28;20440;-69
2021/08/11 07:43:08;;;;;;;5.60;5.10;;;24.00;99.90;;;;;;5054441;28;20414;-69
2021/08/11 07:45:34;;;;;;;8.87;6.00;;;24.10;99.90;;;;;;5053100;28;20198;-70
2021/08/11 07:48:00;;;;;;;5.40;4.90;;;23.20;99.90;;;;;;5054343;28;20173;-69
2021/08/11 07:50:28;;;;;;;6.20;5.07;;;23.40;99.90;;;;;;5054549;28;20488;-69
2021/08/11 07:52:55;;;;;;;5.10;4.60;;;22.70;99.90;;;;;;5053874;28;20489;-70
2021/08/11 07:55:20;;;;;;;5.80;5.23;;;23.80;99.90;;;;;;5053098;28;20849;-70
2021/08/11 07:57:46;;;;;;;4.80;4.40;;;21.90;99.90;;;;;;5054017;28;20484;-70
2021/08/11 08:00:16;;;;;;;8.30;5.77;;;22.70;99.90;;;;;;5054373;28;20190;-69
2021/08/11 08:02:42;;;;;;;6.57;4.90;;;21.80;99.90;;;;;;5053900;28;20262;-70
2021/08/11 08:05:09;;;;;;;4.87;4.33;;;21.90;99.90;;;;;;5036594;28;20535;-69
2021/08/11 08:07:37;;;;;;;8.10;4.87;;;22.20;99.90;;;;;;5053943;28;20415;-69
2021/08/11 08:10:07;;;;;;;5.30;4.90;;;22.70;99.90;;;;;;5054229;28;20415;-71
2021/08/11 08:12:33;;;;;;;5.77;4.30;;;22.50;99.90;;;;;;5053170;28;20421;-71
2021/08/11 08:14:58;;;;;;;5.20;4.70;;;22.90;99.90;;;;;;5053114;28;20478;-69
2021/08/11 08:17:26;;;;;;;4.83;4.40;;;21.90;99.90;;;;;;5053602;28;20487;-70
2021/08/11 08:20:05;;;;;;;4.90;4.50;;;22.50;99.90;;;;;;5054487;28;20177;-71
2021/08/11 08:22:44;;;;;;;4.40;4.00;;;23.50;99.90;;;;;;5053114;28;20487;-70
2021/08/11 08:25:10;;;;;;;5.43;4.60;;;23.70;99.90;;;;;;5021845;28;20515;-71
2021/08/11 08:28:07;;;;;;;4.80;4.37;;;24.80;99.90;;;;;;5054648;28;20448;-70
2021/08/11 08:30:32;;;;;;;4.30;3.43;;;22.90;99.90;;;;;;5052158;28;20413;-70
2021/08/11 08:33:00;;;;;;;4.60;4.20;;;23.60;99.90;;;;;;5053493;28;20820;-70
2021/08/11 08:35:38;;;;;;;4.33;4.00;;;23.40;99.90;;;;;;5053141;28;20167;-69
2021/08/11 08:38:09;;;;;;;4.20;3.50;;;23.30;99.90;;;;;;5052098;28;20409;-70
2021/08/11 08:40:37;;;;;;;4.30;4.00;;;24.60;99.90;;;;;;5036442;28;20413;-70
2021/08/11 08:43:09;;;;;;;4.80;4.30;;;25.70;99.90;;;;;;5053180;28;20822;-69
2021/08/11 08:45:35;;;;;;;5.23;4.60;;;25.10;99.90;;;;;;5053171;28;20540;-69
2021/08/11 08:48:04;;;;;;;4.30;3.70;;;23.80;99.90;;;;;;5052980;28;20476;-69
2021/08/11 08:50:30;;;;;;;4.13;3.70;;;23.50;99.90;;;;;;5053180;28;20174;-69
2021/08/11 08:52:56;;;;;;;4.00;3.70;;;24.00;99.90;;;;;;5051674;28;20410;-69
2021/08/11 08:55:22;;;;;;;4.20;3.87;;;24.50;99.90;;;;;;5052598;28;20409;-70
2021/08/11 08:57:48;;;;;;;4.13;3.80;;;24.30;99.90;;;;;;5051239;28;20412;-70
2021/08/11 09:00:14;;;;;;;5.30;4.40;;;24.10;99.90;;;;;;5052634;28;20504;-70
2021/08/11 09:02:40;;;;;;;5.00;3.43;;;23.10;99.90;;;;;;5052224;28;20187;-70
2021/08/11 09:05:08;;;;;;;4.90;4.10;;;23.40;99.90;;;;;;5053057;28;20445;-68
2021/08/11 09:07:33;;;;;;;4.43;4.03;;;22.10;99.90;;;;;;5052612;28;20496;-70
2021/08/11 09:10:14;;;;;;;4.67;3.10;;;22.50;99.90;;;;;;5052737;28;20492;-68
2021/08/11 09:12:44;;;;;;;4.60;3.60;;;23.40;99.90;;;;;;5052594;28;20690;-70
2021/08/11 09:15:27;;;;;;;6.70;3.80;;;23.80;99.90;;;;;;5052641;28;20397;-68
2021/08/11 09:17:53;;;;;;;3.20;2.90;;;23.80;99.90;;;;;;5052361;28;20397;-69
2021/08/11 09:20:24;;;;;;;4.10;3.80;;;24.30;99.90;;;;;;5052842;28;20455;-69
2021/08/11 09:22:51;;;;;;;3.80;3.40;;;24.10;99.90;;;;;;5052538;28;20166;-69
2021/08/11 09:25:18;;;;;;;3.97;3.47;;;23.50;99.90;;;;;;5052298;28;20445;-69
2021/08/11 09:27:45;;;;;;;4.33;3.93;;;23.30;99.90;;;;;;5052241;28;20775;-69
2021/08/11 09:30:14;;;;;;;4.00;3.60;;;23.20;99.90;;;;;;5052290;28;20805;-69
2021/08/11 09:33:05;;;;;;;4.50;3.33;;;23.40;99.90;;;;;;5052298;28;20815;-69
2021/08/11 09:35:38;;;;;;;3.73;3.43;;;23.30;99.90;;;;;;5052173;28;20460;-69
2021/08/11 09:38:07;;;;;;;3.33;3.03;;;24.40;99.90;;;;;;5051961;28;20409;-69
2021/08/11 09:40:35;;;;;;;3.47;2.83;;;24.00;99.90;;;;;;5052021;28;20409;-69
2021/08/11 09:43:12;;;;;;;3.87;3.47;;;23.60;99.90;;;;;;5052143;28;20993;-69
2021/08/11 09:45:57;;;;;;;3.20;2.87;;;22.80;99.90;;;;;;5052087;28;20905;-69
2021/08/11 09:48:25;;;;;;;3.50;3.20;;;22.90;99.90;;;;;;5052072;28;20397;-69
2021/08/11 09:50:59;;;;;;;5.50;4.30;;;22.80;99.90;;;;;;5051934;28;20511;-69
2021/08/11 09:53:26;;;;;;;5.53;3.07;;;23.70;99.90;;;;;;5052336;28;20430;-69
2021/08/11 09:56:06;;;;;;;4.77;3.80;;;23.40;99.90;;;;;;5052215;28;20420;-70
2021/08/11 09:59:01;;;;;;;4.27;3.33;;;23.40;99.90;;;;;;5051783;28;20426;-69
2021/08/11 10:01:28;;;;;;;2.73;2.53;;;23.50;99.90;;;;;;5049831;28;20445;-70
2021/08/11 10:04:04;;;;;;;3.63;3.30;;;23.70;99.90;;;;;;5051829;28;20424;-70
2021/08/11 10:06:35;;;;;;;4.70;4.30;;;23.20;99.90;;;;;;5051952;28;20482;-70
2021/08/11 10:09:15;;;;;;;5.37;4.87;;;22.50;99.90;;;;;;5051265;28;20412;-70
2021/08/11 10:11:43;;;;;;;5.00;4.27;;;23.10;99.90;;;;;;5051770;28;20459;-69
2021/08/11 10:14:11;;;;;;;3.70;3.40;;;23.70;99.90;;;;;;5052065;28;20398;-69
2021/08/11 10:16:36;;;;;;;3.77;3.37;;;23.00;99.90;;;;;;5051801;28;20404;-71
2021/08/11 10:19:04;;;;;;;4.20;3.53;;;22.60;99.90;;;;;;5051674;28;20411;-70
2021/08/11 10:21:36;;;;;;;3.67;3.37;;;23.10;99.90;;;;;;5051651;28;20207;-70
2021/08/11 10:24:02;;;;;;;5.33;3.13;;;23.00;99.90;;;;;;5051641;28;20915;-70
2021/08/11 10:26:28;;;;;;;4.63;2.80;;;23.00;99.90;;;;;;5051835;28;20488;-72
2021/08/11 10:28:54;;;;;;;3.83;3.53;;;23.50;99.90;;;;;;5051188;28;20457;-70
2021/08/11 10:31:21;;;;;;;4.90;4.00;;;22.70;99.90;;;;;;5050775;28;20742;-70
2021/08/11 10:33:49;;;;;;;4.60;4.20;;;22.20;99.90;;;;;;5050892;28;20404;-70
2021/08/11 10:36:15;;;;;;;4.80;3.70;;;23.00;99.90;;;;;;5049524;28;20432;-70
2021/08/11 10:38:44;;;;;;;3.20;2.90;;;23.10;99.90;;;;;;5050442;28;20460;-69
2021/08/11 10:44:26;;;;;;;3.43;3.23;;;22.90;99.90;;;;;;5016528;28;20410;-72
2021/08/11 10:47:17;;;;;;;3.93;3.53;;;22.60;99.90;;;;;;4997690;28;20460;-70
2021/08/11 10:50:10;;;;;;;5.10;3.77;;;22.90;99.90;;;;;;5040238;28;20448;-71
2021/08/11 10:52:36;;;;;;;3.63;3.30;;;22.70;99.90;;;;;;5028400;28;20495;-70
2021/08/11 10:55:32;;;;;;;6.90;4.07;;;22.30;99.90;;;;;;5030972;28;20408;-70
2021/08/11 10:57:58;;;;;;;7.03;5.60;;;22.70;99.90;;;;;;5047468;28;20540;-70
2021/08/11 11:00:36;;;;;;;5.23;4.57;;;22.70;99.90;;;;;;5030538;28;20413;-70
2021/08/11 11:03:02;;;;;;;6.73;4.10;;;22.60;99.90;;;;;;5031878;28;20793;-70
2021/08/11 11:05:33;;;;;;;7.50;6.80;;;22.20;99.90;;;;;;5030548;28;20449;-71
2021/08/11 11:08:15;;;;;;;5.27;4.77;;;22.20;99.90;;;;;;5030936;28;20181;-71
2021/08/11 11:11:25;;;;;;;3.63;3.30;;;22.40;99.90;;;;;;5035377;28;21007;-72
2021/08/11 11:14:03;;;;;;;4.47;3.90;;;22.30;99.90;;;;;;5032590;28;20964;-71
2021/08/11 11:17:03;;;;;;;4.47;4.07;;;22.30;99.90;;;;;;5033877;28;20418;-72
2021/08/11 11:19:31;;;;;;;3.33;3.03;;;22.60;99.90;;;;;;5032426;28;20503;-71
2021/08/11 11:21:57;;;;;;;7.80;4.30;;;23.00;99.90;;;;;;5053810;28;20439;-71
2021/08/11 11:24:49;;;;;;;4.97;4.43;;;22.80;99.90;;;;;;5054454;28;20400;-70
2021/08/11 11:28:00;;;;;;;3.30;3.00;;;22.90;99.90;;;;;;5054472;28;20175;-70
2021/08/11 11:30:29;;;;;;;2.97;2.77;;;22.50;99.90;;;;;;5055021;28;20492;-70
2021/08/11 11:32:55;;;;;;;5.10;4.40;;;22.50;99.90;;;;;;5054778;28;20463;-71
2021/08/11 11:35:28;;;;;;;4.03;3.10;;;22.60;99.90;;;;;;5055252;28;20401;-70
2021/08/11 11:38:11;;;;;;;3.97;3.43;;;22.60;99.90;;;;;;5053985;28;20430;-71
2021/08/11 11:40:58;;;;;;;5.10;3.60;;;22.70;99.90;;;;;;5053587;28;20404;-69
2021/08/11 11:43:24;;;;;;;3.50;3.20;;;22.60;99.90;;;;;;5054902;28;20398;-71
2021/08/11 11:45:50;;;;;;;4.23;3.13;;;22.10;99.90;;;;;;5054671;28;20462;-71
2021/08/11 11:48:20;;;;;;;3.60;3.30;;;21.80;99.90;;;;;;5036948;28;20403;-71
2021/08/11 11:51:02;;;;;;;3.80;3.20;;;21.80;99.90;;;;;;5020289;28;20501;-70
2021/08/11 11:53:36;;;;;;;3.97;3.20;;;21.70;99.90;;;;;;5053567;28;20833;-70
2021/08/11 11:56:18;;;;;;;7.47;5.10;;;21.40;99.90;;;;;;5053263;28;20981;-69
2021/08/11 11:58:48;;;;;;;5.27;4.53;;;21.90;99.90;;;;;;5053365;28;20470;-70
2021/08/11 12:01:20;;;;;;;4.40;4.00;;;22.00;99.90;;;;;;5055571;28;20443;-70
2021/08/11 12:03:51;;;;;;;5.47;3.93;;;21.60;99.90;;;;;;5021611;28;20450;-70
2021/08/11 12:06:36;;;;;;;5.00;4.40;;;21.90;99.90;;;;;;5037395;28;20928;-70
2021/08/11 12:09:02;;;;;;;3.93;3.60;;;21.90;99.90;;;;;;5054881;28;20403;-70
2021/08/11 12:11:28;;;;;;;4.83;2.90;;;22.30;99.90;;;;;;5036878;28;20431;-70
2021/08/11 12:13:55;;;;;;;5.50;4.10;;;22.30;99.90;;;;;;5053603;28;20403;-70
2021/08/11 12:16:22;;;;;;;4.23;3.87;;;22.70;99.90;;;;;;5053752;28;20238;-70
2021/08/11 12:18:53;;;;;;;6.20;3.80;;;22.60;99.90;;;;;;5053545;28;20411;-69
2021/08/11 12:21:23;;;;;;;6.40;4.07;;;22.50;99.90;;;;;;5053585;28;20428;-69
2021/08/11 12:23:51;;;;;;;6.00;4.97;;;22.70;99.90;;;;;;5016786;28;20423;-69
2021/08/11 12:26:20;;;;;;;5.13;4.40;;;23.00;99.90;;;;;;5034489;28;20536;-69
2021/08/11 12:28:48;;;;;;;3.80;3.30;;;23.10;99.90;;;;;;5016802;28;20842;-69
2021/08/11 12:31:24;;;;;;;3.07;2.83;;;23.40;99.90;;;;;;5033510;28;20441;-70
2021/08/11 12:33:53;;;;;;;4.07;3.70;;;23.00;99.90;;;;;;5034612;28;20455;-71
2021/08/11 12:36:22;;;;;;;3.67;3.20;;;22.80;99.90;;;;;;5032832;28;20466;-71
2021/08/11 12:39:12;;;;;;;3.73;3.43;;;23.00;99.90;;;;;;5032939;28;20448;-71
2021/08/11 12:41:47;;;;;;;4.50;3.60;;;22.80;99.90;;;;;;5034149;28;20432;-69
2021/08/11 12:44:17;;;;;;;3.83;3.53;;;22.60;99.90;;;;;;5045320;28;20776;-70
2021/08/11 12:46:43;;;;;;;3.97;3.40;;;22.30;99.90;;;;;;5033270;28;20447;-70
2021/08/11 12:49:16;;;;;;;4.17;3.50;;;22.30;99.90;;;;;;5045101;28;20418;-70
2021/08/11 12:51:42;;;;;;;5.20;4.13;;;22.00;99.90;;;;;;5053995;28;20209;-70
2021/08/11 12:54:11;;;;;;;4.50;3.47;;;22.30;99.90;;;;;;5054296;28;20410;-70
2021/08/11 12:57:13;;;;;;;6.90;3.73;;;22.10;99.90;;;;;;5047363;28;20480;-70
2021/08/11 13:00:10;;;;;;;5.00;3.10;;;22.30;99.90;;;;;;5027662;28;20417;-69